createdAt,value
2022-10-11T00:00:28.323Z,20.70
2022-10-11T00:02:30.209Z,14.82
2022-10-11T00:04:31.945Z,16.85
2022-10-11T00:06:33.706Z,23.48
2022-10-11T00:08:35.675Z,15.15
2022-10-11T00:10:37.488Z,17.90
2022-10-11T00:12:39.257Z,19.48
2022-10-11T00:14:41.143Z,20.83
2022-10-11T00:16:42.829Z,18.25
2022-10-11T00:18:44.583Z,25.90
2022-10-11T00:20:46.555Z,25.60
2022-10-11T00:22:48.548Z,30.40
2022-10-11T00:24:50.265Z,27.70
2022-10-11T00:26:52.148Z,27.83
2022-10-11T00:28:53.892Z,26.77
2022-10-11T00:30:55.784Z,22.48
2022-10-11T00:32:58.002Z,26.02
2022-10-11T00:35:00.190Z,22.00
2022-10-11T00:37:01.897Z,22.48
2022-10-11T00:39:04.645Z,24.13
2022-10-11T00:41:06.390Z,21.13
2022-10-11T00:43:20.181Z,20.83
2022-10-11T00:45:28.049Z,19.15
2022-10-11T00:47:29.866Z,19.63
2022-10-11T00:49:38.613Z,23.90
2022-10-11T00:51:55.090Z,17.83
2022-10-11T00:53:56.859Z,18.85
2022-10-11T00:56:13.310Z,20.33
2022-10-11T00:58:15.641Z,18.58
2022-10-11T01:00:17.648Z,22.08
2022-10-11T01:02:20.432Z,23.00
2022-10-11T01:04:22.389Z,22.47
2022-10-11T01:06:24.259Z,26.25
2022-10-11T01:08:27.068Z,23.55
2022-10-11T01:10:29.381Z,23.83
2022-10-11T01:12:31.995Z,20.73
2022-10-11T01:15:12.799Z,18.10
2022-10-11T01:17:20.322Z,26.88
2022-10-11T01:19:49.580Z,24.88
2022-10-11T01:22:29.161Z,27.27
2022-10-11T01:24:43.521Z,23.90
2022-10-11T01:26:56.567Z,27.27
2022-10-11T01:29:16.794Z,29.38
2022-10-11T01:31:41.344Z,29.70
2022-10-11T01:33:54.489Z,26.95
2022-10-11T01:36:06.590Z,26.53
2022-10-11T01:38:18.557Z,22.98
2022-10-11T01:40:27.979Z,23.90
2022-10-11T01:42:30.610Z,26.52
2022-10-11T01:44:34.828Z,22.85
2022-10-11T01:46:37.046Z,23.58
2022-10-11T01:48:56.582Z,25.42
2022-10-11T01:51:03.111Z,22.10
2022-10-11T01:53:35.540Z,22.60
2022-10-11T01:55:51.490Z,23.10
2022-10-11T01:58:13.515Z,21.88
2022-10-11T02:00:24.653Z,20.77
2022-10-11T02:02:50.842Z,20.92
2022-10-11T02:05:10.717Z,23.63
2022-10-11T02:07:18.468Z,21.13
2022-10-11T02:09:46.797Z,25.23
2022-10-11T02:11:48.692Z,29.83
2022-10-11T02:14:13.634Z,26.65
2022-10-11T02:16:22.116Z,25.92
2022-10-11T02:18:27.676Z,26.48
2022-10-11T02:20:32.114Z,29.10
2022-10-11T02:22:37.474Z,28.25
2022-10-11T02:24:42.941Z,25.50
2022-10-11T02:26:49.475Z,26.45
2022-10-11T02:28:56.128Z,23.98
2022-10-11T02:31:00.315Z,28.48
2022-10-11T02:33:05.504Z,29.35
2022-10-11T02:35:08.189Z,29.08
2022-10-11T02:37:36.065Z,24.65
2022-10-11T02:40:11.966Z,27.63
2022-10-11T02:42:27.557Z,21.90
2022-10-11T02:44:37.100Z,22.85
2022-10-11T02:46:40.205Z,24.50
2022-10-11T02:48:41.905Z,23.38
2022-10-11T02:50:44.001Z,26.10
2022-10-11T02:52:45.718Z,27.33
2022-10-11T02:54:47.492Z,36.20
2022-10-11T02:56:49.184Z,37.03
2022-10-11T02:58:51.006Z,31.08
2022-10-11T03:00:52.902Z,32.25
2022-10-11T03:02:54.634Z,32.75
2022-10-11T03:04:56.446Z,42.03
2022-10-11T03:06:58.211Z,41.65
2022-10-11T03:08:59.914Z,37.45
2022-10-11T03:11:01.994Z,30.98
2022-10-11T03:13:04.215Z,36.42
2022-10-11T03:15:06.474Z,28.55
2022-10-11T03:17:34.625Z,29.98
2022-10-11T03:19:30.126Z,28.48
2022-10-11T03:21:31.827Z,30.30
2022-10-11T03:23:33.655Z,25.73
2022-10-11T03:25:35.400Z,30.42
2022-10-11T03:27:37.229Z,32.38
2022-10-11T03:29:38.963Z,28.77
2022-10-11T03:31:40.664Z,29.02
2022-10-11T03:33:42.385Z,28.25
2022-10-11T03:35:45.376Z,24.92
2022-10-11T03:37:47.122Z,29.85
2022-10-11T03:39:48.884Z,33.92
2022-10-11T03:41:50.793Z,35.33
2022-10-11T03:43:52.559Z,32.17
2022-10-11T03:45:54.237Z,39.15
2022-10-11T03:47:56.048Z,34.85
2022-10-11T03:49:58.112Z,34.00
2022-10-11T03:51:59.968Z,32.53
2022-10-11T03:54:01.775Z,31.77
2022-10-11T03:56:08.109Z,30.52
2022-10-11T03:58:10.323Z,29.77
2022-10-11T04:00:12.397Z,33.85
2022-10-11T04:02:14.507Z,31.80
2022-10-11T04:04:16.330Z,33.50
2022-10-11T04:06:18.085Z,30.38
2022-10-11T04:08:20.090Z,32.90
2022-10-11T04:10:22.108Z,38.13
2022-10-11T04:12:23.836Z,32.92
2022-10-11T04:14:26.409Z,36.95
2022-10-11T04:16:28.146Z,38.63
2022-10-11T04:18:29.928Z,44.35
2022-10-11T04:20:31.686Z,63.20
2022-10-11T04:22:33.592Z,51.13
2022-10-11T04:24:35.380Z,52.20
2022-10-11T04:26:37.274Z,67.15
2022-10-11T04:28:39.172Z,69.85
2022-10-11T04:30:41.169Z,100.43
2022-10-11T04:32:43.012Z,86.28
2022-10-11T04:34:44.743Z,67.75
2022-10-11T04:36:49.932Z,67.20
2022-10-11T04:38:51.850Z,65.85
2022-10-11T04:40:53.575Z,70.32
2022-10-11T04:42:55.263Z,70.72
2022-10-11T04:44:57.182Z,72.65
2022-10-11T04:46:59.043Z,78.07
2022-10-11T04:49:00.840Z,65.20
2022-10-11T04:51:02.551Z,74.50
2022-10-11T04:53:04.492Z,71.68
2022-10-11T04:55:06.592Z,51.33
2022-10-11T04:57:08.310Z,49.10
2022-10-11T04:59:10.347Z,43.17
2022-10-11T05:01:12.254Z,32.25
2022-10-11T05:03:13.991Z,29.67
2022-10-11T05:05:15.801Z,30.02
2022-10-11T05:07:17.611Z,26.67
2022-10-11T05:09:19.300Z,28.17
2022-10-11T05:11:21.076Z,31.48
2022-10-11T05:13:23.091Z,24.58
2022-10-11T05:15:24.839Z,29.42
2022-10-11T05:17:26.703Z,35.22
2022-10-11T05:19:28.557Z,28.48
2022-10-11T05:21:31.302Z,38.00
2022-10-11T05:23:34.665Z,33.95
2022-10-11T05:25:36.640Z,29.45
2022-10-11T05:27:38.389Z,27.30
2022-10-11T05:29:40.095Z,28.02
2022-10-11T05:31:42.150Z,28.33
2022-10-11T05:33:44.575Z,28.30
2022-10-11T05:35:46.394Z,32.08
2022-10-11T05:37:48.373Z,25.27
2022-10-11T05:39:50.277Z,30.95
2022-10-11T05:41:52.192Z,30.45
2022-10-11T05:43:54.122Z,30.38
2022-10-11T05:45:56.585Z,27.13
2022-10-11T05:47:58.986Z,27.83
2022-10-11T05:50:00.868Z,27.42
2022-10-11T05:52:02.603Z,29.92
2022-10-11T05:54:04.467Z,33.90
2022-10-11T05:56:18.547Z,31.65
2022-10-11T06:00:22.670Z,27.90
2022-10-11T06:02:24.500Z,24.00
2022-10-11T06:04:26.450Z,27.85
2022-10-11T06:06:28.310Z,30.52
2022-10-11T06:08:30.835Z,26.02
2022-10-11T06:10:33.111Z,26.85
2022-10-11T06:12:34.921Z,27.23
2022-10-11T06:14:36.938Z,24.30
2022-10-11T06:16:38.649Z,31.65
2022-10-11T06:18:40.604Z,26.75
2022-10-11T06:20:42.289Z,24.92
2022-10-11T06:22:44.078Z,25.10
2022-10-11T06:24:45.846Z,24.10
2022-10-11T06:26:49.431Z,23.95
2022-10-11T06:28:51.226Z,23.77
2022-10-11T06:30:53.035Z,22.33
2022-10-11T06:32:54.979Z,27.52
2022-10-11T06:34:57.201Z,23.58
2022-10-11T06:36:59.121Z,21.13
2022-10-11T06:39:01.081Z,20.77
2022-10-11T06:41:24.055Z,22.25
2022-10-11T06:43:25.835Z,25.73
2022-10-11T06:45:27.826Z,19.45
2022-10-11T06:47:29.528Z,17.60
2022-10-11T06:49:31.369Z,20.13
2022-10-11T06:51:33.230Z,19.50
2022-10-11T06:53:34.915Z,15.50
2022-10-11T06:55:36.703Z,15.95
2022-10-11T06:57:38.596Z,20.20
2022-10-11T06:59:40.343Z,19.25
2022-10-11T07:01:42.759Z,18.45
2022-10-11T07:03:45.582Z,19.85
2022-10-11T07:05:47.283Z,18.83
2022-10-11T07:07:48.978Z,17.33
2022-10-11T07:09:50.852Z,15.40
2022-10-11T07:11:52.525Z,13.30
2022-10-11T07:13:56.758Z,14.85
2022-10-11T07:16:02.100Z,17.38
2022-10-11T07:18:04.518Z,14.88
2022-10-11T07:20:07.426Z,14.80
2022-10-11T07:22:09.179Z,16.90
2022-10-11T07:24:10.882Z,17.38
2022-10-11T07:26:12.777Z,16.13
2022-10-11T07:28:14.781Z,14.15
2022-10-11T07:30:16.555Z,12.18
2022-10-11T07:32:18.306Z,11.88
2022-10-11T07:34:20.123Z,16.30
2022-10-11T07:36:23.479Z,15.90
2022-10-11T07:38:25.725Z,10.32
2022-10-11T07:40:27.876Z,13.60
2022-10-11T07:42:29.588Z,10.38
2022-10-11T07:44:31.744Z,14.27
2022-10-11T07:46:33.595Z,12.15
2022-10-11T07:48:36.459Z,13.43
2022-10-11T07:50:38.443Z,18.98
2022-10-11T07:52:40.180Z,15.90
2022-10-11T07:54:41.895Z,10.32
2022-10-11T07:56:43.821Z,15.30
2022-10-11T07:58:50.315Z,9.02
2022-10-11T08:00:54.898Z,11.18
2022-10-11T08:02:56.742Z,11.48
2022-10-11T08:04:58.644Z,12.85
2022-10-11T08:07:00.347Z,13.95
2022-10-11T08:09:02.891Z,14.68
2022-10-11T08:11:05.230Z,10.38
2022-10-11T08:13:07.331Z,13.23
2022-10-11T08:15:09.447Z,19.98
2022-10-11T08:17:11.160Z,11.65
2022-10-11T08:19:12.900Z,15.18
2022-10-11T08:21:16.757Z,18.40
2022-10-11T08:23:20.030Z,9.88
2022-10-11T08:25:21.700Z,25.40
2022-10-11T08:27:23.610Z,10.02
2022-10-11T08:29:25.324Z,13.35
2022-10-11T08:31:35.046Z,10.05
2022-10-11T08:33:36.873Z,8.63
2022-10-11T08:35:38.670Z,8.60
2022-10-11T08:37:40.368Z,10.57
2022-10-11T08:39:42.073Z,8.57
2022-10-11T08:42:17.284Z,12.43
2022-10-11T08:45:12.859Z,10.88
2022-10-11T08:49:19.502Z,11.20
2022-10-11T08:51:27.642Z,13.45
2022-10-11T08:54:06.352Z,12.02
2022-10-11T08:56:13.002Z,8.20
2022-10-11T08:58:20.971Z,11.23
2022-10-11T09:00:24.526Z,14.00
2022-10-11T09:02:55.795Z,8.30
2022-10-11T09:04:56.971Z,11.15
2022-10-11T09:07:19.107Z,11.43
2022-10-11T09:10:14.588Z,6.30
2022-10-11T09:15:11.804Z,7.07
2022-10-11T09:17:24.070Z,24.20
2022-10-11T09:20:01.909Z,28.08
2022-10-11T09:22:45.950Z,13.77
2022-10-11T09:24:47.817Z,8.20
2022-10-11T09:26:57.045Z,8.50
2022-10-11T09:29:17.185Z,11.35
2022-10-11T09:31:19.120Z,10.32
2022-10-11T09:33:34.363Z,12.00
2022-10-11T09:35:41.060Z,13.52
2022-10-11T09:38:04.851Z,12.50
2022-10-11T09:40:22.082Z,11.02
2022-10-11T09:42:24.154Z,10.23
2022-10-11T09:44:29.006Z,9.30
2022-10-11T09:46:57.698Z,8.52
2022-10-11T09:49:03.158Z,8.10
2022-10-11T09:51:25.851Z,11.30
2022-10-11T09:53:57.983Z,8.93
2022-10-11T09:56:05.122Z,9.98
2022-10-11T09:58:33.371Z,9.77
2022-10-11T10:00:35.157Z,9.40
2022-10-11T10:02:45.193Z,9.80
2022-10-11T10:04:58.726Z,10.32
2022-10-11T10:07:11.829Z,9.93
2022-10-11T10:09:26.170Z,7.13
2022-10-11T10:11:36.813Z,10.93
2022-10-11T10:13:43.887Z,7.35
2022-10-11T10:15:48.356Z,7.45
2022-10-11T10:17:51.989Z,8.50
2022-10-11T10:21:57.593Z,9.32
2022-10-11T10:24:05.114Z,9.70
2022-10-11T10:26:26.476Z,6.85
2022-10-11T10:28:28.498Z,10.80
2022-10-11T10:30:35.192Z,8.63
2022-10-11T10:32:48.658Z,12.75
2022-10-11T10:35:13.960Z,7.18
2022-10-11T10:37:25.261Z,7.05
2022-10-11T10:39:42.889Z,7.93
2022-10-11T10:41:45.068Z,10.55
2022-10-11T10:43:53.123Z,9.40
2022-10-11T10:46:20.232Z,10.45
2022-10-11T10:49:02.052Z,6.05
2022-10-11T10:51:10.559Z,9.48
2022-10-11T10:53:12.345Z,10.05
2022-10-11T10:55:34.443Z,5.90
2022-10-11T10:58:08.078Z,8.45
2022-10-11T11:00:21.155Z,6.68
2022-10-11T11:02:50.544Z,7.78
2022-10-11T11:05:06.668Z,7.25
2022-10-11T11:07:22.041Z,5.90
2022-10-11T11:09:55.418Z,11.07
2022-10-11T11:12:22.703Z,9.00
2022-10-11T11:14:58.310Z,10.43
2022-10-11T11:17:06.229Z,6.95
2022-10-11T11:19:44.990Z,15.43
2022-10-11T11:22:20.345Z,6.63
2022-10-11T11:24:28.072Z,6.20
2022-10-11T11:26:44.210Z,9.65
2022-10-11T11:29:03.535Z,8.02
2022-10-11T11:31:11.121Z,7.28
2022-10-11T11:33:27.209Z,8.25
2022-10-11T11:35:43.917Z,7.13
2022-10-11T11:37:48.698Z,11.95
2022-10-11T11:39:54.260Z,9.43
2022-10-11T11:42:01.357Z,5.72
2022-10-11T11:44:25.020Z,8.60
2022-10-11T11:46:41.621Z,6.70
2022-10-11T11:48:44.741Z,8.77
2022-10-11T11:50:57.394Z,6.22
2022-10-11T11:53:12.247Z,7.07
2022-10-11T11:55:31.147Z,7.35
2022-10-11T11:57:49.009Z,6.40
2022-10-11T11:59:53.354Z,8.32
2022-10-11T12:01:55.466Z,9.77
2022-10-11T12:04:03.114Z,8.13
2022-10-11T12:06:13.840Z,6.90
2022-10-11T12:08:28.635Z,10.30
2022-10-11T12:10:38.108Z,8.38
2022-10-11T12:12:39.976Z,8.85
2022-10-11T12:14:42.505Z,8.85
2022-10-11T12:17:16.560Z,7.82
2022-10-11T12:19:20.343Z,6.97
2022-10-11T12:21:34.446Z,7.72
2022-10-11T12:25:43.464Z,9.55
2022-10-11T12:27:51.032Z,8.75
2022-10-11T12:29:52.769Z,7.63
2022-10-11T12:32:00.475Z,8.70
2022-10-11T12:34:02.310Z,5.60
2022-10-11T12:36:31.703Z,7.75
2022-10-11T12:38:36.173Z,8.40
2022-10-11T12:40:40.773Z,9.52
2022-10-11T12:43:14.312Z,7.00
2022-10-11T12:45:18.901Z,9.20
2022-10-11T12:47:40.620Z,5.32
2022-10-11T12:50:03.826Z,8.07
2022-10-11T12:52:17.898Z,6.22
2022-10-11T12:56:54.574Z,4.75
2022-10-11T12:59:05.213Z,7.35
2022-10-11T13:01:10.001Z,6.75
2022-10-11T13:03:35.130Z,9.88
2022-10-11T13:05:45.192Z,6.75
2022-10-11T13:07:48.210Z,9.35
2022-10-11T13:09:53.898Z,8.70
2022-10-11T13:12:09.730Z,6.88
2022-10-11T13:14:23.143Z,10.00
2022-10-11T13:16:28.703Z,10.23
2022-10-11T13:18:30.525Z,10.48
2022-10-11T13:20:37.627Z,8.57
2022-10-11T13:22:42.164Z,8.43
2022-10-11T13:24:44.131Z,10.65
2022-10-11T13:26:49.407Z,8.55
2022-10-11T13:28:51.271Z,8.10
2022-10-11T13:30:56.205Z,7.07
2022-10-11T13:33:00.208Z,5.97
2022-10-11T13:35:04.882Z,17.85
2022-10-11T13:37:12.350Z,8.65
2022-10-11T13:39:31.002Z,11.15
2022-10-11T13:41:33.574Z,7.00
2022-10-11T13:43:36.534Z,8.55
2022-10-11T13:45:38.859Z,7.43
2022-10-11T13:47:40.710Z,7.22
2022-10-11T13:49:48.099Z,6.53
2022-10-11T13:52:02.042Z,9.32
2022-10-11T13:54:13.085Z,6.18
2022-10-11T13:56:19.419Z,8.05
2022-10-11T13:58:30.208Z,10.27
2022-10-11T14:00:35.039Z,6.85
2022-10-11T14:02:37.964Z,6.97
2022-10-11T14:04:41.748Z,5.13
2022-10-11T14:06:49.119Z,8.52
2022-10-11T14:08:56.618Z,18.40
2022-10-11T14:11:05.101Z,13.95
2022-10-11T14:13:29.681Z,10.45
2022-10-11T14:15:40.548Z,8.50
2022-10-11T14:17:44.911Z,8.65
2022-10-11T14:20:07.328Z,13.75
2022-10-11T14:22:18.457Z,7.65
2022-10-11T14:24:21.317Z,9.57
2022-10-11T14:26:24.647Z,7.23
2022-10-11T14:28:26.842Z,9.55
2022-10-11T14:30:29.464Z,8.65
2022-10-11T14:32:34.092Z,8.98
2022-10-11T14:34:35.853Z,5.97
2022-10-11T14:36:37.811Z,6.47
2022-10-11T14:38:39.520Z,8.95
2022-10-11T14:40:41.356Z,7.25
2022-10-11T14:42:43.387Z,8.93
2022-10-11T14:44:45.188Z,5.38
2022-10-11T14:46:48.645Z,12.45
2022-10-11T14:48:55.342Z,6.38
2022-10-11T14:51:03.779Z,8.68
2022-10-11T14:53:07.124Z,8.18
2022-10-11T14:55:08.997Z,10.32
2022-10-11T14:57:12.943Z,5.50
2022-10-11T14:59:17.325Z,5.20
2022-10-11T15:01:19.192Z,5.75
2022-10-11T15:03:20.974Z,7.60
2022-10-11T15:05:29.832Z,6.55
2022-10-11T15:07:34.562Z,7.75
2022-10-11T15:09:36.332Z,8.05
2022-10-11T15:11:38.723Z,9.85
2022-10-11T15:13:40.486Z,11.80
2022-10-11T15:15:42.255Z,8.35
2022-10-11T15:17:44.042Z,12.18
2022-10-11T15:19:45.897Z,7.35
2022-10-11T15:21:48.515Z,9.38
2022-10-11T15:23:51.803Z,9.38
2022-10-11T15:25:53.811Z,11.95
2022-10-11T15:27:56.578Z,8.25
2022-10-11T15:29:58.317Z,12.67
2022-10-11T15:32:00.125Z,49.70
2022-10-11T15:34:01.915Z,51.10
2022-10-11T15:36:04.819Z,92.28
2022-10-11T15:38:06.845Z,51.40
2022-10-11T15:40:22.326Z,33.92
2022-10-11T15:42:24.112Z,24.13
2022-10-11T15:44:26.388Z,16.50
2022-10-11T15:46:28.074Z,34.25
2022-10-11T15:48:30.087Z,41.03
2022-10-11T15:50:34.835Z,37.80
2022-10-11T15:52:36.572Z,25.92
2022-10-11T15:54:38.264Z,27.17
2022-10-11T15:56:40.178Z,28.45
2022-10-11T15:58:42.558Z,82.85
2022-10-11T16:00:46.436Z,44.65
2022-10-11T16:02:48.241Z,30.38
2022-10-11T16:04:50.036Z,37.53
2022-10-11T16:06:51.748Z,39.72
2022-10-11T16:08:53.672Z,40.33
2022-10-11T16:10:55.398Z,52.58
2022-10-11T16:12:57.216Z,37.45
2022-10-11T16:14:59.089Z,35.10
2022-10-11T16:17:03.534Z,42.85
2022-10-11T16:19:05.253Z,42.10
2022-10-11T16:21:13.216Z,36.20
2022-10-11T16:23:15.558Z,37.22
2022-10-11T16:25:18.466Z,30.10
2022-10-11T16:27:20.361Z,19.35
2022-10-11T16:29:22.117Z,24.20
2022-10-11T16:31:23.962Z,22.98
2022-10-11T16:33:26.726Z,18.25
2022-10-11T16:35:32.364Z,24.55
2022-10-11T16:37:35.340Z,31.27
2022-10-11T16:39:37.218Z,36.35
2022-10-11T16:41:39.556Z,48.10
2022-10-11T16:43:41.245Z,46.85
2022-10-11T16:45:43.127Z,42.53
2022-10-11T16:47:44.993Z,40.03
2022-10-11T16:49:46.924Z,38.13
2022-10-11T16:51:49.660Z,36.20
2022-10-11T16:53:52.547Z,32.67
2022-10-11T16:55:54.278Z,17.17
2022-10-11T16:57:56.085Z,25.08
2022-10-11T16:59:58.058Z,18.45
2022-10-11T17:01:59.772Z,16.35
2022-10-11T17:04:01.748Z,17.23
2022-10-11T17:06:04.536Z,14.93
2022-10-11T17:08:06.587Z,16.60
2022-10-11T17:10:08.707Z,21.13
2022-10-11T17:12:12.032Z,13.65
2022-10-11T17:14:14.181Z,24.38
2022-10-11T17:16:17.340Z,39.55
2022-10-11T17:18:19.150Z,58.28
2022-10-11T17:20:20.837Z,60.08
2022-10-11T17:22:22.617Z,73.30
2022-10-11T17:24:24.774Z,77.30
2022-10-11T17:26:27.481Z,77.88
2022-10-11T17:28:31.602Z,87.05
2022-10-11T17:30:33.428Z,81.88
2022-10-11T17:32:35.418Z,82.88
2022-10-11T17:34:37.317Z,89.15
2022-10-11T17:36:40.051Z,90.28
2022-10-11T17:38:41.766Z,92.20
2022-10-11T17:40:43.596Z,89.07
2022-10-11T17:42:45.348Z,74.75
2022-10-11T17:44:47.348Z,71.68
2022-10-11T17:46:49.432Z,66.47
2022-10-11T17:48:53.277Z,66.43
2022-10-11T17:50:55.321Z,63.05
2022-10-11T17:52:57.187Z,65.20
2022-10-11T17:54:58.881Z,76.70
2022-10-11T17:57:00.756Z,82.80
2022-10-11T17:59:02.738Z,78.57
2022-10-11T18:01:07.050Z,79.07
2022-10-11T18:03:09.186Z,83.72
2022-10-11T18:05:10.946Z,88.65
2022-10-11T18:07:12.616Z,84.32
2022-10-11T18:09:17.011Z,75.72
2022-10-11T18:11:20.780Z,97.10
2022-10-11T18:13:22.487Z,77.30
2022-10-11T18:15:24.334Z,74.47
2022-10-11T18:17:26.091Z,89.57
2022-10-11T18:19:27.878Z,82.07
2022-10-11T18:21:33.901Z,108.85
2022-10-11T18:23:36.711Z,90.13
2022-10-11T18:25:38.434Z,90.85
2022-10-11T18:27:40.148Z,116.65
2022-10-11T18:29:42.023Z,134.75
2022-10-11T18:31:43.748Z,127.70
2022-10-11T18:33:46.467Z,143.50
2022-10-11T18:35:48.293Z,194.13
2022-10-11T18:37:50.694Z,155.02
2022-10-11T18:39:52.547Z,184.77
2022-10-11T18:41:54.330Z,230.20
2022-10-11T18:43:57.404Z,195.68
2022-10-11T18:46:15.167Z,212.20
2022-10-11T18:48:17.018Z,220.85
2022-10-11T18:50:20.174Z,244.00
2022-10-11T18:52:21.911Z,249.55
2022-10-11T18:54:23.710Z,271.20
2022-10-11T18:56:27.161Z,276.25
2022-10-11T18:58:34.630Z,253.40
2022-10-11T19:00:41.167Z,260.13
2022-10-11T19:02:43.266Z,248.70
2022-10-11T19:04:45.053Z,234.88
2022-10-11T19:06:48.851Z,235.10
2022-10-11T19:08:54.017Z,262.73
2022-10-11T19:10:55.706Z,243.23
2022-10-11T19:12:57.566Z,259.90
2022-10-11T19:14:59.275Z,277.08
2022-10-11T19:17:00.962Z,271.63
2022-10-11T19:19:02.838Z,264.83
2022-10-11T19:21:07.496Z,265.20
2022-10-11T19:23:09.582Z,266.52
2022-10-11T19:25:11.568Z,265.15
2022-10-11T19:27:13.264Z,259.75
2022-10-11T19:29:18.056Z,259.52
2022-10-11T19:31:21.077Z,254.10
2022-10-11T19:33:22.777Z,254.70
2022-10-11T19:35:24.500Z,228.23
2022-10-11T19:37:26.384Z,226.98
2022-10-11T19:39:28.851Z,252.10
2022-10-11T19:41:30.551Z,240.25
2022-10-11T19:43:32.911Z,254.55
2022-10-11T19:45:35.608Z,263.20
2022-10-11T19:47:37.301Z,273.23
2022-10-11T19:49:39.508Z,301.52
2022-10-11T19:51:41.589Z,280.02
2022-10-11T19:53:43.790Z,301.42
2022-10-11T19:55:46.553Z,300.92
2022-10-11T19:57:48.456Z,284.00
2022-10-11T19:59:50.141Z,285.80
2022-10-11T20:01:53.280Z,295.92
2022-10-11T20:04:00.653Z,287.73
2022-10-11T20:06:04.118Z,283.10
2022-10-11T20:08:05.858Z,277.55
2022-10-11T20:10:07.806Z,287.73
2022-10-11T20:12:09.491Z,274.80
2022-10-11T20:14:11.534Z,269.30
2022-10-11T20:16:18.333Z,263.60
2022-10-11T20:18:20.009Z,272.42
2022-10-11T20:20:21.954Z,277.80
2022-10-11T20:22:23.622Z,254.68
2022-10-11T20:24:25.407Z,272.95
2022-10-11T20:26:29.205Z,236.50
2022-10-11T20:28:32.369Z,265.48
2022-10-11T20:30:34.118Z,257.67
2022-10-11T20:32:36.114Z,272.55
2022-10-11T20:34:37.783Z,244.18
2022-10-11T20:36:39.495Z,236.88
2022-10-11T20:38:43.583Z,250.70
2022-10-11T20:40:45.261Z,238.15
2022-10-11T20:42:46.966Z,244.68
2022-10-11T20:44:48.954Z,243.60
2022-10-11T20:46:50.645Z,228.98
2022-10-11T20:49:00.445Z,216.10
2022-10-11T20:51:03.846Z,206.52
2022-10-11T20:53:05.585Z,212.63
2022-10-11T20:55:07.622Z,207.98
2022-10-11T20:57:09.606Z,207.02
2022-10-11T20:59:11.329Z,223.30
2022-10-11T21:01:18.149Z,214.20
2022-10-11T21:03:20.470Z,192.15
2022-10-11T21:05:22.179Z,162.02
2022-10-11T21:07:23.908Z,163.95
2022-10-11T21:09:26.056Z,177.23
2022-10-11T21:11:29.873Z,168.77
2022-10-11T21:13:31.858Z,171.60
2022-10-11T21:15:34.040Z,177.05
2022-10-11T21:17:35.719Z,171.10
2022-10-11T21:19:37.403Z,168.52
2022-10-11T21:21:39.248Z,164.55
2022-10-11T21:23:41.880Z,138.07
2022-10-11T21:25:43.622Z,141.15
2022-10-11T21:27:45.428Z,136.30
2022-10-11T21:29:47.101Z,125.57
2022-10-11T21:31:48.867Z,137.95
2022-10-11T21:33:51.194Z,150.85
2022-10-11T21:35:52.879Z,156.23
2022-10-11T21:37:56.151Z,146.77
2022-10-11T21:39:58.224Z,144.52
2022-10-11T21:41:59.941Z,135.95
2022-10-11T21:44:01.687Z,141.95
2022-10-11T21:46:16.321Z,137.15
2022-10-11T21:48:18.022Z,133.73
2022-10-11T21:50:19.743Z,127.15
2022-10-11T21:52:22.129Z,118.13
2022-10-11T21:54:23.843Z,122.20
2022-10-11T21:56:26.002Z,113.38
2022-10-11T21:58:28.929Z,116.45
2022-10-11T22:00:30.601Z,120.53
2022-10-11T22:02:32.502Z,102.78
2022-10-11T22:04:34.968Z,103.70
2022-10-11T22:06:37.802Z,104.97
2022-10-11T22:08:40.020Z,103.30
2022-10-11T22:10:51.841Z,103.00
2022-10-11T22:12:53.555Z,100.40
2022-10-11T22:14:55.281Z,95.55
2022-10-11T22:16:57.398Z,82.70
2022-10-11T22:18:59.375Z,80.70
2022-10-11T22:21:13.163Z,78.15
2022-10-11T22:23:15.229Z,78.10
2022-10-11T22:25:16.951Z,79.47
2022-10-11T22:27:18.697Z,72.68
2022-10-11T22:29:20.451Z,73.05
2022-10-11T22:31:23.180Z,77.85
2022-10-11T22:33:25.030Z,73.93
2022-10-11T22:35:26.919Z,69.57
2022-10-11T22:37:28.744Z,70.65
2022-10-11T22:39:30.525Z,61.33
2022-10-11T22:41:32.228Z,61.08
2022-10-11T22:43:34.514Z,62.33
2022-10-11T22:45:36.238Z,62.25
2022-10-11T22:47:38.690Z,63.55
2022-10-11T22:49:40.614Z,59.70
2022-10-11T22:51:42.302Z,58.42
2022-10-11T22:53:44.019Z,61.05
2022-10-11T22:55:45.727Z,52.00
2022-10-11T22:57:47.452Z,51.80
2022-10-11T22:59:49.159Z,48.75
2022-10-11T23:01:50.850Z,46.50
2022-10-11T23:03:53.107Z,43.42
2022-10-11T23:05:58.470Z,40.47
2022-10-11T23:08:00.255Z,38.75
2022-10-11T23:10:02.037Z,40.53
2022-10-11T23:12:03.971Z,38.13
2022-10-11T23:14:05.782Z,39.95
2022-10-11T23:16:09.553Z,32.33
2022-10-11T23:18:11.561Z,29.40
2022-10-11T23:20:13.432Z,22.25
2022-10-11T23:22:15.533Z,22.48
2022-10-11T23:24:17.197Z,23.88
2022-10-11T23:26:19.273Z,25.38
2022-10-11T23:28:20.985Z,22.10
2022-10-11T23:30:22.797Z,20.40
2022-10-11T23:32:25.162Z,23.15
2022-10-11T23:34:26.889Z,21.02
2022-10-11T23:36:28.741Z,18.98
2022-10-11T23:38:30.710Z,22.00
2022-10-11T23:40:32.402Z,19.77
2022-10-11T23:42:34.291Z,20.92
2022-10-11T23:44:35.970Z,22.38
2022-10-11T23:46:37.664Z,24.23
2022-10-11T23:48:39.719Z,23.67
2022-10-11T23:50:42.443Z,20.90
2022-10-11T23:52:44.142Z,20.67
2022-10-11T23:54:45.993Z,18.55
2022-10-11T23:56:47.669Z,19.02
2022-10-11T23:58:49.397Z,17.85
